createdAt,value
2022-12-13T00:02:18.512Z,99637.89
2022-12-13T00:05:47.496Z,99639.52
2022-12-13T00:09:16.362Z,99643.32
2022-12-13T00:12:43.353Z,99645.45
2022-12-13T00:16:13.436Z,99647.95
2022-12-13T00:19:40.995Z,99646.39
2022-12-13T00:23:07.803Z,99640.54
2022-12-13T00:26:35.431Z,99646.81
2022-12-13T00:30:02.574Z,99655.15
2022-12-13T00:33:30.171Z,99659.29
2022-12-13T00:37:00.273Z,99664.07
2022-12-13T00:40:29.671Z,99668.22
2022-12-13T00:43:56.428Z,99667.80
2022-12-13T00:47:23.738Z,99674.92
2022-12-13T00:51:01.200Z,99675.05
2022-12-13T00:54:31.461Z,99679.59
2022-12-13T00:58:20.089Z,99677.00
2022-12-13T01:01:53.825Z,99675.69
2022-12-13T01:05:47.267Z,99678.91
2022-12-13T01:09:11.628Z,99676.52
2022-12-13T01:12:38.356Z,99676.14
2022-12-13T01:16:07.827Z,99677.95
2022-12-13T01:19:35.353Z,99675.86
2022-12-13T01:23:02.314Z,99680.55
2022-12-13T01:26:29.554Z,99685.01
2022-12-13T01:29:56.760Z,99686.36
2022-12-13T01:38:32.107Z,99674.40
2022-12-13T01:42:05.457Z,99678.41
2022-12-13T01:45:32.505Z,99676.20
2022-12-13T01:49:05.071Z,99677.71
2022-12-13T01:52:34.962Z,99674.98
2022-12-13T01:56:07.537Z,99676.80
2022-12-13T01:59:34.387Z,99680.16
2022-12-13T02:03:02.707Z,99685.88
2022-12-13T02:06:34.630Z,99688.19
2022-12-13T02:10:05.389Z,99691.65
2022-12-13T02:13:35.961Z,99689.67
2022-12-13T02:17:15.012Z,99693.47
2022-12-13T02:21:13.705Z,99688.63
2022-12-13T02:25:13.157Z,99688.76
2022-12-13T02:29:06.576Z,99683.58
2022-12-13T02:32:44.043Z,99691.09
2022-12-13T02:36:15.868Z,99688.89
2022-12-13T02:39:48.764Z,99687.89
2022-12-13T02:43:22.163Z,99693.35
2022-12-13T02:46:56.845Z,99699.30
2022-12-13T02:50:26.290Z,99697.54
2022-12-13T02:53:52.928Z,99694.94
2022-12-13T02:57:35.687Z,99694.05
2022-12-13T03:01:27.970Z,99696.05
2022-12-13T03:05:21.841Z,99702.45
2022-12-13T03:08:58.762Z,99707.21
2022-12-13T03:12:56.122Z,99706.39
2022-12-13T03:16:29.514Z,99705.06
2022-12-13T03:19:56.387Z,99704.96
2022-12-13T03:23:24.793Z,99707.27
2022-12-13T03:26:53.559Z,99704.29
2022-12-13T03:30:24.209Z,99704.55
2022-12-13T03:33:52.156Z,99706.20
2022-12-13T03:37:18.930Z,99712.45
2022-12-13T03:40:47.510Z,99708.45
2022-12-13T03:44:14.301Z,99706.16
2022-12-13T03:47:40.948Z,99706.26
2022-12-13T03:51:11.460Z,99708.91
2022-12-13T03:54:38.923Z,99712.74
2022-12-13T03:58:12.047Z,99717.39
2022-12-13T04:01:39.560Z,99715.39
2022-12-13T04:05:07.762Z,99716.60
2022-12-13T04:08:35.436Z,99718.66
2022-12-13T04:12:19.771Z,99716.27
2022-12-13T04:15:50.934Z,99719.96
2022-12-13T04:19:22.675Z,99722.84
2022-12-13T04:22:50.406Z,99722.14
2022-12-13T04:26:17.358Z,99720.61
2022-12-13T04:29:44.110Z,99719.55
2022-12-13T04:33:10.839Z,99715.48
2022-12-13T04:36:37.395Z,99718.05
2022-12-13T04:40:04.845Z,99723.02
2022-12-13T04:43:31.696Z,99723.40
2022-12-13T04:47:00.846Z,99728.73
2022-12-13T04:50:28.463Z,99731.33
2022-12-13T04:53:55.690Z,99733.43
2022-12-13T04:57:40.581Z,99730.23
2022-12-13T05:01:10.047Z,99729.42
2022-12-13T05:04:36.950Z,99728.80
2022-12-13T05:08:03.927Z,99733.06
2022-12-13T05:11:35.783Z,99723.89
2022-12-13T05:15:02.982Z,99732.40
2022-12-13T05:18:31.208Z,99731.86
2022-12-13T05:21:57.541Z,99738.12
2022-12-13T05:25:28.809Z,99736.73
2022-12-13T05:28:56.533Z,99736.01
2022-12-13T05:32:23.298Z,99730.72
2022-12-13T05:35:53.879Z,99733.27
2022-12-13T05:39:27.851Z,99733.96
2022-12-13T05:43:00.768Z,99734.48
2022-12-13T05:46:29.033Z,99741.85
2022-12-13T05:49:55.583Z,99746.81
2022-12-13T05:53:30.320Z,99745.78
2022-12-13T05:56:58.220Z,99746.82
2022-12-13T06:00:30.141Z,99751.25
2022-12-13T06:03:57.132Z,99752.97
2022-12-13T06:07:24.619Z,99755.19
2022-12-13T06:11:10.613Z,99753.69
2022-12-13T06:14:39.265Z,99755.77
2022-12-13T06:18:05.665Z,99753.06
2022-12-13T06:21:43.579Z,99754.92
2022-12-13T06:25:31.542Z,99759.33
2022-12-13T06:28:59.472Z,99761.54
2022-12-13T06:32:25.788Z,99763.39
2022-12-13T06:35:52.930Z,99767.60
2022-12-13T06:39:21.423Z,99769.62
2022-12-13T06:42:48.331Z,99772.80
2022-12-13T06:46:15.115Z,99775.82
2022-12-13T06:49:44.957Z,99785.83
2022-12-13T06:53:11.816Z,99790.22
2022-12-13T06:56:38.841Z,99789.90
2022-12-13T07:00:06.983Z,99788.92
2022-12-13T07:03:33.527Z,99793.73
2022-12-13T07:07:02.875Z,99799.92
2022-12-13T07:10:29.505Z,99799.27
2022-12-13T07:13:57.082Z,99799.29
2022-12-13T07:17:32.367Z,99797.95
2022-12-13T07:21:00.770Z,99804.09
2022-12-13T07:24:28.879Z,99808.34
2022-12-13T07:28:02.675Z,99811.39
2022-12-13T07:31:29.905Z,99816.46
2022-12-13T07:34:56.927Z,99821.52
2022-12-13T07:38:23.594Z,99821.98
2022-12-13T07:41:54.486Z,99828.39
2022-12-13T07:45:21.879Z,99834.64
2022-12-13T07:48:48.601Z,99836.31
2022-12-13T07:52:15.493Z,99837.64
2022-12-13T07:55:43.506Z,99841.37
2022-12-13T07:59:12.435Z,99843.42
2022-12-13T08:02:40.401Z,99840.02
2022-12-13T08:06:09.676Z,99837.63
2022-12-13T08:09:36.235Z,99833.08
2022-12-13T08:13:06.681Z,99844.42
2022-12-13T08:16:33.868Z,99847.51
2022-12-13T08:20:00.537Z,99854.45
2022-12-13T08:23:27.751Z,99850.68
2022-12-13T08:26:54.571Z,99857.82
2022-12-13T08:30:22.054Z,99857.64
2022-12-13T08:33:50.654Z,99860.18
2022-12-13T08:37:17.602Z,99865.09
2022-12-13T08:40:45.058Z,99865.08
2022-12-13T08:44:12.782Z,99863.70
2022-12-13T08:47:42.116Z,99865.52
2022-12-13T08:51:11.964Z,99863.11
2022-12-13T08:54:46.547Z,99869.30
2022-12-13T08:58:14.472Z,99873.29
2022-12-13T09:01:41.015Z,99876.27
2022-12-13T09:05:09.351Z,99875.84
2022-12-13T09:08:36.182Z,99884.65
2022-12-13T09:12:03.661Z,99886.98
2022-12-13T09:15:45.828Z,99888.60
2022-12-13T09:19:25.038Z,99893.01
2022-12-13T09:23:01.400Z,99897.95
2022-12-13T09:26:29.446Z,99888.73
2022-12-13T09:30:06.999Z,99884.45
2022-12-13T09:33:41.497Z,99884.11
2022-12-13T09:37:12.718Z,99885.99
2022-12-13T09:40:41.475Z,99887.34
2022-12-13T09:44:32.422Z,99888.68
2022-12-13T09:48:04.844Z,99889.52
2022-12-13T09:51:55.323Z,99894.77
2022-12-13T09:55:33.774Z,99899.02
2022-12-13T09:59:00.422Z,99899.90
2022-12-13T10:02:30.295Z,99894.65
2022-12-13T10:06:01.077Z,99895.49
2022-12-13T10:09:28.868Z,99893.94
2022-12-13T10:13:02.917Z,99896.84
2022-12-13T10:16:36.513Z,99896.44
2022-12-13T10:20:04.994Z,99898.23
2022-12-13T10:23:59.379Z,99899.50
2022-12-13T10:27:28.110Z,99904.84
2022-12-13T10:30:57.164Z,99906.52
2022-12-13T10:34:39.166Z,99906.61
2022-12-13T10:38:31.978Z,99907.20
2022-12-13T10:42:06.101Z,99909.34
2022-12-13T10:45:32.745Z,99909.54
2022-12-13T10:49:00.422Z,99911.88
2022-12-13T10:52:34.991Z,99911.51
2022-12-13T10:56:11.206Z,99911.52
2022-12-13T10:59:39.845Z,99906.77
2022-12-13T11:03:07.373Z,99906.79
2022-12-13T11:06:46.046Z,99901.67
2022-12-13T11:10:27.098Z,99903.88
2022-12-13T11:14:01.559Z,99904.52
2022-12-13T11:17:31.309Z,99902.75
2022-12-13T11:21:01.136Z,99902.84
2022-12-13T11:24:34.431Z,99906.46
2022-12-13T11:28:26.270Z,99910.19
2022-12-13T11:32:03.954Z,99911.36
2022-12-13T11:35:37.706Z,99915.88
2022-12-13T11:39:18.394Z,99913.90
2022-12-13T11:42:49.862Z,99917.66
2022-12-13T11:46:28.867Z,99918.54
2022-12-13T11:49:58.849Z,99921.30
2022-12-13T11:53:32.544Z,99928.70
2022-12-13T11:57:05.300Z,99924.05
2022-12-13T12:00:36.059Z,99930.11
2022-12-13T12:04:18.025Z,99934.85
2022-12-13T12:08:30.965Z,99935.05
2022-12-13T12:11:45.721Z,99936.77
2022-12-13T12:15:26.621Z,99938.82
2022-12-13T12:18:54.605Z,99944.53
2022-12-13T12:22:40.143Z,99946.56
2022-12-13T12:26:11.429Z,99949.45
2022-12-13T12:30:03.073Z,99954.63
2022-12-13T12:33:41.070Z,99952.48
2022-12-13T12:37:18.834Z,99953.62
2022-12-13T12:41:18.607Z,99955.71
2022-12-13T12:44:59.186Z,99957.02
2022-12-13T12:48:53.715Z,99956.25
2022-12-13T12:52:39.274Z,99958.05
2022-12-13T12:56:36.509Z,99964.25
2022-12-13T13:00:16.148Z,99970.64
2022-12-13T13:03:45.284Z,99969.13
2022-12-13T13:07:23.080Z,99972.38
2022-12-13T13:10:51.723Z,99973.30
2022-12-13T13:14:35.014Z,99974.73
2022-12-13T13:18:02.534Z,99980.23
2022-12-13T13:21:44.861Z,99978.20
2022-12-13T13:25:35.157Z,99981.99
2022-12-13T13:29:43.106Z,99987.64
2022-12-13T13:33:46.686Z,99991.55
2022-12-13T13:37:30.581Z,99995.05
2022-12-13T13:40:57.583Z,99996.92
2022-12-13T13:44:57.018Z,100000.36
2022-12-13T13:48:43.117Z,100002.64
2022-12-13T13:52:25.585Z,100001.16
2022-12-13T13:56:02.193Z,100002.08
2022-12-13T14:00:24.215Z,100004.20
2022-12-13T14:04:37.960Z,100009.41
2022-12-13T14:12:20.209Z,100018.35
2022-12-13T14:16:22.325Z,100020.83
2022-12-13T14:20:22.909Z,100023.95
2022-12-13T14:24:00.688Z,100027.06
2022-12-13T14:27:41.390Z,100031.38
2022-12-13T14:31:22.116Z,100039.94
2022-12-13T14:34:49.161Z,100039.81
2022-12-13T14:38:25.160Z,100042.59
2022-12-13T14:41:56.615Z,100044.48
2022-12-13T14:45:32.041Z,100045.89
2022-12-13T14:49:01.622Z,100045.04
2022-12-13T14:52:34.535Z,100045.89
2022-12-13T14:56:28.783Z,100045.55
2022-12-13T14:59:58.552Z,100044.70
2022-12-13T15:03:28.954Z,100048.27
2022-12-13T15:07:06.680Z,100052.50
2022-12-13T15:10:48.581Z,100053.14
2022-12-13T15:14:20.045Z,100054.45
2022-12-13T15:17:46.444Z,100048.48
2022-12-13T15:21:28.056Z,100048.10
2022-12-13T15:25:01.542Z,100055.73
2022-12-13T15:28:37.210Z,100051.98
2022-12-13T15:32:12.382Z,100057.45
2022-12-13T15:35:40.318Z,100066.70
2022-12-13T15:39:07.464Z,100066.05
2022-12-13T15:42:37.348Z,100066.11
2022-12-13T15:46:07.850Z,100069.74
2022-12-13T15:49:37.703Z,100072.68
2022-12-13T15:53:07.544Z,100072.55
2022-12-13T15:56:37.600Z,100076.85
2022-12-13T16:00:30.953Z,100075.00
2022-12-13T16:03:59.154Z,100076.89
2022-12-13T16:07:29.993Z,100078.76
2022-12-13T16:10:58.509Z,100085.07
2022-12-13T16:14:49.255Z,100086.44
2022-12-13T16:18:26.610Z,100086.59
2022-12-13T16:21:55.697Z,100088.99
2022-12-13T16:25:23.339Z,100086.80
2022-12-13T16:29:03.376Z,100091.73
2022-12-13T16:32:36.208Z,100091.91
2022-12-13T16:36:17.194Z,100099.58
2022-12-13T16:39:44.243Z,100103.98
2022-12-13T16:43:18.527Z,100099.18
2022-12-13T16:47:11.961Z,100105.12
2022-12-13T16:50:33.078Z,100100.98
2022-12-13T16:54:00.491Z,100101.30
2022-12-13T16:57:27.550Z,100102.84
2022-12-13T17:00:59.884Z,100107.30
2022-12-13T17:04:29.089Z,100104.09
2022-12-13T17:07:57.682Z,100107.52
2022-12-13T17:11:24.883Z,100110.42
2022-12-13T17:14:52.938Z,100108.42
2022-12-13T17:18:20.939Z,100114.24
2022-12-13T17:21:49.756Z,100110.19
2022-12-13T17:25:18.266Z,100108.52
2022-12-13T17:28:49.823Z,100112.14
2022-12-13T17:32:22.386Z,100115.74
2022-12-13T17:35:52.787Z,100120.85
2022-12-13T17:39:21.680Z,100120.86
2022-12-13T17:42:56.678Z,100126.33
2022-12-13T17:46:23.948Z,100125.81
2022-12-13T17:49:53.199Z,100127.36
2022-12-13T17:53:28.064Z,100128.05
2022-12-13T17:57:05.625Z,100130.59
2022-12-13T18:00:35.969Z,100137.58
2022-12-13T18:04:05.938Z,100139.27
2022-12-13T18:07:38.783Z,100138.58
2022-12-13T18:14:57.359Z,100153.38
2022-12-13T18:18:27.234Z,100152.52
2022-12-13T18:21:57.035Z,100153.34
2022-12-13T18:25:24.753Z,100157.08
2022-12-13T18:28:53.350Z,100163.55
2022-12-13T18:32:23.821Z,100162.52
2022-12-13T18:35:52.973Z,100162.02
2022-12-13T18:39:26.300Z,100158.64
2022-12-13T18:42:53.746Z,100162.56
2022-12-13T18:46:24.292Z,100164.27
2022-12-13T18:49:57.480Z,100162.23
2022-12-13T18:53:28.317Z,100168.21
2022-12-13T18:56:58.349Z,100169.91
2022-12-13T19:00:27.188Z,100170.27
2022-12-13T19:03:59.611Z,100173.49
2022-12-13T19:07:27.217Z,100171.61
2022-12-13T19:10:54.816Z,100177.40
2022-12-13T19:14:26.888Z,100177.58
2022-12-13T19:17:54.423Z,100177.39
2022-12-13T19:21:32.705Z,100178.77
2022-12-13T19:25:01.483Z,100176.38
2022-12-13T19:28:32.920Z,100178.42
2022-12-13T19:32:02.645Z,100170.60
2022-12-13T19:35:34.334Z,100172.30
2022-12-13T19:39:05.971Z,100175.85
2022-12-13T19:42:35.978Z,100175.17
2022-12-13T19:46:08.531Z,100172.64
2022-12-13T19:49:37.329Z,100176.54
2022-12-13T19:53:07.577Z,100177.08
2022-12-13T19:56:35.113Z,100175.20
2022-12-13T20:00:02.878Z,100175.19
2022-12-13T20:03:36.454Z,100175.69
2022-12-13T20:07:03.818Z,100175.54
2022-12-13T20:10:31.098Z,100176.90
2022-12-13T20:13:59.260Z,100174.69
2022-12-13T20:17:30.297Z,100174.68
2022-12-13T20:21:13.184Z,100173.31
2022-12-13T20:24:44.647Z,100171.95
2022-12-13T20:28:16.321Z,100178.41
2022-12-13T20:31:48.659Z,100178.23
2022-12-13T20:35:16.400Z,100177.71
2022-12-13T20:38:43.877Z,100176.86
2022-12-13T20:42:11.565Z,100176.33
2022-12-13T20:45:40.167Z,100179.89
2022-12-13T20:49:10.404Z,100180.57
2022-12-13T20:52:37.402Z,100179.02
2022-12-13T20:56:05.491Z,100177.14
2022-12-13T20:59:35.216Z,100177.15
2022-12-13T21:03:06.802Z,100181.70
2022-12-13T21:06:42.973Z,100185.08
2022-12-13T21:10:11.739Z,100186.59
2022-12-13T21:13:38.599Z,100186.90
2022-12-13T21:17:09.931Z,100189.45
2022-12-13T21:20:37.666Z,100191.30
2022-12-13T21:24:11.218Z,100197.25
2022-12-13T21:27:44.501Z,100198.95
2022-12-13T21:31:23.468Z,100199.98
2022-12-13T21:34:49.974Z,100200.98
2022-12-13T21:38:18.720Z,100201.84
2022-12-13T21:41:48.550Z,100201.48
2022-12-13T21:45:16.323Z,100209.42
2022-12-13T21:48:46.864Z,100208.70
2022-12-13T21:52:16.926Z,100211.89
2022-12-13T21:55:48.152Z,100213.19
2022-12-13T21:59:18.227Z,100210.77
2022-12-13T22:02:44.768Z,100206.83
2022-12-13T22:06:11.700Z,100204.42
2022-12-13T22:09:40.497Z,100202.35
2022-12-13T22:13:07.066Z,100206.52
2022-12-13T22:16:34.024Z,100205.98
2022-12-13T22:20:26.156Z,100203.42
2022-12-13T22:24:52.921Z,100202.55
2022-12-13T22:28:36.433Z,100197.79
2022-12-13T22:32:03.282Z,100196.56
2022-12-13T22:35:30.540Z,100197.06
2022-12-13T22:38:57.279Z,100195.02
2022-12-13T22:42:23.865Z,100191.63
2022-12-13T22:45:50.928Z,100191.95
2022-12-13T22:49:17.595Z,100193.27
2022-12-13T22:52:43.933Z,100195.11
2022-12-13T22:56:17.692Z,100194.44
2022-12-13T22:59:45.015Z,100192.41
2022-12-13T23:03:33.275Z,100192.24
2022-12-13T23:07:03.715Z,100192.79
2022-12-13T23:10:50.512Z,100192.48
2022-12-13T23:14:21.537Z,100192.70
2022-12-13T23:17:49.785Z,100196.09
2022-12-13T23:21:17.549Z,100197.44
2022-12-13T23:24:46.989Z,100198.29
2022-12-13T23:28:14.071Z,100199.64
2022-12-13T23:31:43.071Z,100198.75
2022-12-13T23:35:18.136Z,100194.77
2022-12-13T23:38:45.805Z,100196.56
2022-12-13T23:42:12.949Z,100199.04
2022-12-13T23:45:40.834Z,100193.17
2022-12-13T23:49:09.531Z,100189.55
2022-12-13T23:52:38.302Z,100189.80
2022-12-13T23:56:05.874Z,100185.66
2022-12-13T23:59:33.289Z,100184.09
